sensor_id;sensor_type;location;lat;lon;timestamp;temperature;humidity
25554;DHT22;13446;50.926;5.332;2024-01-15T00:01:17;3.40;99.90
25554;DHT22;13446;50.926;5.332;2024-01-15T00:03:42;3.40;99.90
25554;DHT22;13446;50.926;5.332;2024-01-15T00:06:08;3.30;99.90
25554;DHT22;13446;50.926;5.332;2024-01-15T00:08:34;3.40;99.90
25554;DHT22;13446;50.926;5.332;2024-01-15T00:11:00;3.40;99.90
25554;DHT22;13446;50.926;5.332;2024-01-15T00:13:25;3.40;99.90
25554;DHT22;13446;50.926;5.332;2024-01-15T00:15:51;3.40;99.90
25554;DHT22;13446;50.926;5.332;2024-01-15T00:18:17;3.40;99.90
25554;DHT22;13446;50.926;5.332;2024-01-15T00:20:42;3.50;99.90
25554;DHT22;13446;50.926;5.332;2024-01-15T00:23:08;3.60;99.90
25554;DHT22;13446;50.926;5.332;2024-01-15T00:25:34;3.60;99.90
25554;DHT22;13446;50.926;5.332;2024-01-15T00:28:00;3.60;99.90
25554;DHT22;13446;50.926;5.332;2024-01-15T00:30:25;3.50;99.90
25554;DHT22;13446;50.926;5.332;2024-01-15T00:32:52;3.60;99.90
25554;DHT22;13446;50.926;5.332;2024-01-15T00:35:17;3.60;99.90
25554;DHT22;13446;50.926;5.332;2024-01-15T00:37:43;3.50;99.90
25554;DHT22;13446;50.926;5.332;2024-01-15T00:40:09;3.60;99.90
25554;DHT22;13446;50.926;5.332;2024-01-15T00:42:35;3.60;99.90
25554;DHT22;13446;50.926;5.332;2024-01-15T00:45:00;3.50;99.90
25554;DHT22;13446;50.926;5.332;2024-01-15T00:47:26;3.40;99.90
25554;DHT22;13446;50.926;5.332;2024-01-15T00:49:52;3.40;99.90
25554;DHT22;13446;50.926;5.332;2024-01-15T00:52:17;3.40;99.90
25554;DHT22;13446;50.926;5.332;2024-01-15T00:54:43;3.40;99.90
25554;DHT22;13446;50.926;5.332;2024-01-15T00:57:09;3.30;99.90
25554;DHT22;13446;50.926;5.332;2024-01-15T00:59:34;3.30;99.90
25554;DHT22;13446;50.926;5.332;2024-01-15T01:02:00;3.30;99.90
25554;DHT22;13446;50.926;5.332;2024-01-15T01:04:27;3.30;99.90
25554;DHT22;13446;50.926;5.332;2024-01-15T01:06:52;3.30;99.90
25554;DHT22;13446;50.926;5.332;2024-01-15T01:09:18;3.20;99.90
25554;DHT22;13446;50.926;5.332;2024-01-15T01:11:44;3.30;99.90
25554;DHT22;13446;50.926;5.332;2024-01-15T01:14:10;3.20;99.90
25554;DHT22;13446;50.926;5.332;2024-01-15T01:16:35;3.20;99.90
25554;DHT22;13446;50.926;5.332;2024-01-15T01:19:05;3.20;99.90
25554;DHT22;13446;50.926;5.332;2024-01-15T01:21:32;3.10;99.90
25554;DHT22;13446;50.926;5.332;2024-01-15T01:23:58;3.10;99.90
25554;DHT22;13446;50.926;5.332;2024-01-15T01:26:24;3.20;99.90
25554;DHT22;13446;50.926;5.332;2024-01-15T01:28:49;3.10;99.90
25554;DHT22;13446;50.926;5.332;2024-01-15T01:31:16;3.10;99.90
25554;DHT22;13446;50.926;5.332;2024-01-15T01:33:42;3.10;99.90
25554;DHT22;13446;50.926;5.332;2024-01-15T01:36:10;3.10;99.90
25554;DHT22;13446;50.926;5.332;2024-01-15T01:38:37;3.00;99.90
25554;DHT22;13446;50.926;5.332;2024-01-15T01:41:03;3.10;99.90
25554;DHT22;13446;50.926;5.332;2024-01-15T01:43:29;3.20;99.90
25554;DHT22;13446;50.926;5.332;2024-01-15T01:45:58;3.10;99.90
25554;DHT22;13446;50.926;5.332;2024-01-15T01:48:25;3.20;99.90
25554;DHT22;13446;50.926;5.332;2024-01-15T01:50:54;3.30;99.90
25554;DHT22;13446;50.926;5.332;2024-01-15T01:53:20;3.40;99.90
25554;DHT22;13446;50.926;5.332;2024-01-15T01:55:48;3.30;99.90
25554;DHT22;13446;50.926;5.332;2024-01-15T01:58:14;3.40;99.90
25554;DHT22;13446;50.926;5.332;2024-01-15T02:00:40;3.30;99.90
25554;DHT22;13446;50.926;5.332;2024-01-15T02:03:06;3.50;99.90
25554;DHT22;13446;50.926;5.332;2024-01-15T02:05:33;3.50;99.90
25554;DHT22;13446;50.926;5.332;2024-01-15T02:08:00;3.40;99.90
25554;DHT22;13446;50.926;5.332;2024-01-15T02:10:26;3.40;99.90
25554;DHT22;13446;50.926;5.332;2024-01-15T02:12:51;3.30;99.90
25554;DHT22;13446;50.926;5.332;2024-01-15T02:15:17;3.40;99.90
25554;DHT22;13446;50.926;5.332;2024-01-15T02:18:03;3.40;99.90
25554;DHT22;13446;50.926;5.332;2024-01-15T02:20:29;3.40;99.90
25554;DHT22;13446;50.926;5.332;2024-01-15T02:23:08;3.40;99.90
25554;DHT22;13446;50.926;5.332;2024-01-15T02:25:35;3.40;99.90
25554;DHT22;13446;50.926;5.332;2024-01-15T02:28:01;3.50;99.90
25554;DHT22;13446;50.926;5.332;2024-01-15T02:30:28;3.60;99.90
25554;DHT22;13446;50.926;5.332;2024-01-15T02:32:55;3.70;99.90
25554;DHT22;13446;50.926;5.332;2024-01-15T02:35:21;3.60;99.90
25554;DHT22;13446;50.926;5.332;2024-01-15T02:37:46;3.40;99.90
25554;DHT22;13446;50.926;5.332;2024-01-15T02:40:12;3.40;99.90
25554;DHT22;13446;50.926;5.332;2024-01-15T02:42:38;3.40;99.90
25554;DHT22;13446;50.926;5.332;2024-01-15T02:45:04;3.50;99.90
25554;DHT22;13446;50.926;5.332;2024-01-15T02:47:30;3.50;99.90
25554;DHT22;13446;50.926;5.332;2024-01-15T02:49:55;3.60;99.90
25554;DHT22;13446;50.926;5.332;2024-01-15T02:52:21;3.60;99.90
25554;DHT22;13446;50.926;5.332;2024-01-15T02:54:47;3.60;99.90
25554;DHT22;13446;50.926;5.332;2024-01-15T02:57:13;3.60;99.90
25554;DHT22;13446;50.926;5.332;2024-01-15T02:59:38;3.30;99.90
25554;DHT22;13446;50.926;5.332;2024-01-15T03:02:04;3.30;99.90
25554;DHT22;13446;50.926;5.332;2024-01-15T03:04:30;3.20;99.90
25554;DHT22;13446;50.926;5.332;2024-01-15T03:06:55;3.30;99.90
25554;DHT22;13446;50.926;5.332;2024-01-15T03:09:21;3.30;99.90
25554;DHT22;13446;50.926;5.332;2024-01-15T03:11:46;3.40;99.90
25554;DHT22;13446;50.926;5.332;2024-01-15T03:14:12;3.40;99.90
25554;DHT22;13446;50.926;5.332;2024-01-15T03:16:38;3.40;99.90
25554;DHT22;13446;50.926;5.332;2024-01-15T03:19:03;3.50;99.90
25554;DHT22;13446;50.926;5.332;2024-01-15T03:21:29;3.50;99.90
25554;DHT22;13446;50.926;5.332;2024-01-15T03:23:55;3.50;99.90
25554;DHT22;13446;50.926;5.332;2024-01-15T03:26:20;3.40;99.90
25554;DHT22;13446;50.926;5.332;2024-01-15T03:28:47;3.40;99.90
25554;DHT22;13446;50.926;5.332;2024-01-15T03:31:12;3.60;99.90
25554;DHT22;13446;50.926;5.332;2024-01-15T03:33:38;3.60;99.90
25554;DHT22;13446;50.926;5.332;2024-01-15T03:36:04;3.50;99.90
25554;DHT22;13446;50.926;5.332;2024-01-15T03:38:29;3.40;99.90
25554;DHT22;13446;50.926;5.332;2024-01-15T03:40:55;3.40;99.90
25554;DHT22;13446;50.926;5.332;2024-01-15T03:43:21;3.50;99.90
25554;DHT22;13446;50.926;5.332;2024-01-15T03:45:46;3.40;99.90
25554;DHT22;13446;50.926;5.332;2024-01-15T03:48:12;3.50;99.90
25554;DHT22;13446;50.926;5.332;2024-01-15T03:50:38;3.60;99.90
25554;DHT22;13446;50.926;5.332;2024-01-15T03:53:03;3.60;99.90
25554;DHT22;13446;50.926;5.332;2024-01-15T03:55:29;3.60;99.90
25554;DHT22;13446;50.926;5.332;2024-01-15T03:57:55;3.60;99.90
25554;DHT22;13446;50.926;5.332;2024-01-15T04:00:20;3.50;99.90
25554;DHT22;13446;50.926;5.332;2024-01-15T04:02:46;3.50;99.90
25554;DHT22;13446;50.926;5.332;2024-01-15T04:05:12;3.60;99.90
25554;DHT22;13446;50.926;5.332;2024-01-15T04:07:37;3.50;99.90
25554;DHT22;13446;50.926;5.332;2024-01-15T04:10:03;3.50;99.90
25554;DHT22;13446;50.926;5.332;2024-01-15T04:12:29;3.50;99.90
25554;DHT22;13446;50.926;5.332;2024-01-15T04:14:55;3.50;99.90
25554;DHT22;13446;50.926;5.332;2024-01-15T04:17:20;3.50;99.90
25554;DHT22;13446;50.926;5.332;2024-01-15T04:19:47;3.50;99.90
25554;DHT22;13446;50.926;5.332;2024-01-15T04:22:13;3.50;99.90
25554;DHT22;13446;50.926;5.332;2024-01-15T04:24:39;3.50;99.90
25554;DHT22;13446;50.926;5.332;2024-01-15T04:27:05;3.30;99.90
25554;DHT22;13446;50.926;5.332;2024-01-15T04:29:31;3.30;99.90
25554;DHT22;13446;50.926;5.332;2024-01-15T04:31:57;3.20;99.90
25554;DHT22;13446;50.926;5.332;2024-01-15T04:34:23;3.20;99.90
25554;DHT22;13446;50.926;5.332;2024-01-15T04:36:48;3.30;99.90
25554;DHT22;13446;50.926;5.332;2024-01-15T04:39:14;3.20;99.90
25554;DHT22;13446;50.926;5.332;2024-01-15T04:41:39;3.30;99.90
25554;DHT22;13446;50.926;5.332;2024-01-15T04:44:05;3.20;99.90
25554;DHT22;13446;50.926;5.332;2024-01-15T04:46:31;3.30;99.90
25554;DHT22;13446;50.926;5.332;2024-01-15T04:48:57;3.30;99.90
25554;DHT22;13446;50.926;5.332;2024-01-15T04:51:22;3.30;99.90
25554;DHT22;13446;50.926;5.332;2024-01-15T04:53:48;3.30;99.90
25554;DHT22;13446;50.926;5.332;2024-01-15T04:56:13;3.30;99.90
25554;DHT22;13446;50.926;5.332;2024-01-15T04:58:39;3.20;99.90
25554;DHT22;13446;50.926;5.332;2024-01-15T05:01:05;3.30;99.90
25554;DHT22;13446;50.926;5.332;2024-01-15T05:03:30;3.40;99.90
25554;DHT22;13446;50.926;5.332;2024-01-15T05:05:56;3.30;99.90
25554;DHT22;13446;50.926;5.332;2024-01-15T05:08:22;3.40;99.90
25554;DHT22;13446;50.926;5.332;2024-01-15T05:10:47;3.40;99.90
25554;DHT22;13446;50.926;5.332;2024-01-15T05:13:13;3.40;99.90
25554;DHT22;13446;50.926;5.332;2024-01-15T05:15:39;3.40;99.90
25554;DHT22;13446;50.926;5.332;2024-01-15T05:18:05;3.40;99.90
25554;DHT22;13446;50.926;5.332;2024-01-15T05:20:31;3.40;99.90
25554;DHT22;13446;50.926;5.332;2024-01-15T05:22:57;3.40;99.90
25554;DHT22;13446;50.926;5.332;2024-01-15T05:25:22;3.40;99.90
25554;DHT22;13446;50.926;5.332;2024-01-15T05:27:48;3.30;99.90
25554;DHT22;13446;50.926;5.332;2024-01-15T05:30:14;3.30;99.90
25554;DHT22;13446;50.926;5.332;2024-01-15T05:32:40;3.30;99.90
25554;DHT22;13446;50.926;5.332;2024-01-15T05:35:06;3.20;99.90
25554;DHT22;13446;50.926;5.332;2024-01-15T05:37:31;3.30;99.90
25554;DHT22;13446;50.926;5.332;2024-01-15T05:39:57;3.20;99.90
25554;DHT22;13446;50.926;5.332;2024-01-15T05:42:23;3.00;99.90
25554;DHT22;13446;50.926;5.332;2024-01-15T05:44:49;2.90;99.90
25554;DHT22;13446;50.926;5.332;2024-01-15T05:47:14;2.90;99.90
25554;DHT22;13446;50.926;5.332;2024-01-15T05:49:40;2.90;99.90
25554;DHT22;13446;50.926;5.332;2024-01-15T05:52:06;2.90;99.90
25554;DHT22;13446;50.926;5.332;2024-01-15T05:54:32;2.80;99.90
25554;DHT22;13446;50.926;5.332;2024-01-15T05:56:57;2.80;99.90
25554;DHT22;13446;50.926;5.332;2024-01-15T05:59:23;2.80;99.90
25554;DHT22;13446;50.926;5.332;2024-01-15T06:01:49;2.80;99.90
25554;DHT22;13446;50.926;5.332;2024-01-15T06:04:14;2.80;99.90
25554;DHT22;13446;50.926;5.332;2024-01-15T06:06:40;2.80;99.90
25554;DHT22;13446;50.926;5.332;2024-01-15T06:09:06;2.70;99.90
25554;DHT22;13446;50.926;5.332;2024-01-15T06:11:32;2.70;99.90
25554;DHT22;13446;50.926;5.332;2024-01-15T06:13:58;2.80;99.90
25554;DHT22;13446;50.926;5.332;2024-01-15T06:16:26;2.70;99.90
25554;DHT22;13446;50.926;5.332;2024-01-15T06:18:51;2.60;99.90
25554;DHT22;13446;50.926;5.332;2024-01-15T06:21:17;2.50;99.90
25554;DHT22;13446;50.926;5.332;2024-01-15T06:23:43;2.50;99.90
25554;DHT22;13446;50.926;5.332;2024-01-15T06:26:11;2.60;99.90
25554;DHT22;13446;50.926;5.332;2024-01-15T06:28:37;2.70;99.90
25554;DHT22;13446;50.926;5.332;2024-01-15T06:31:02;2.70;99.90
25554;DHT22;13446;50.926;5.332;2024-01-15T06:33:28;2.60;99.90
25554;DHT22;13446;50.926;5.332;2024-01-15T06:35:54;2.60;99.90
25554;DHT22;13446;50.926;5.332;2024-01-15T06:38:20;2.50;99.90
25554;DHT22;13446;50.926;5.332;2024-01-15T06:40:45;2.50;99.90
25554;DHT22;13446;50.926;5.332;2024-01-15T06:43:14;2.40;99.90
25554;DHT22;13446;50.926;5.332;2024-01-15T06:45:40;2.60;99.90
25554;DHT22;13446;50.926;5.332;2024-01-15T06:48:06;2.60;99.90
25554;DHT22;13446;50.926;5.332;2024-01-15T06:50:33;2.50;99.90
25554;DHT22;13446;50.926;5.332;2024-01-15T06:52:59;2.50;99.90
25554;DHT22;13446;50.926;5.332;2024-01-15T06:55:24;2.50;99.90
25554;DHT22;13446;50.926;5.332;2024-01-15T06:57:51;2.50;99.90
25554;DHT22;13446;50.926;5.332;2024-01-15T07:00:17;2.60;99.90
25554;DHT22;13446;50.926;5.332;2024-01-15T07:02:45;2.70;99.90
25554;DHT22;13446;50.926;5.332;2024-01-15T07:05:10;2.80;99.90
25554;DHT22;13446;50.926;5.332;2024-01-15T07:07:36;2.90;99.90
25554;DHT22;13446;50.926;5.332;2024-01-15T07:10:02;2.80;99.90
25554;DHT22;13446;50.926;5.332;2024-01-15T07:12:29;2.70;99.90
25554;DHT22;13446;50.926;5.332;2024-01-15T07:14:56;2.80;99.90
25554;DHT22;13446;50.926;5.332;2024-01-15T07:17:22;2.80;99.90
25554;DHT22;13446;50.926;5.332;2024-01-15T07:19:48;2.90;99.90
25554;DHT22;13446;50.926;5.332;2024-01-15T07:22:14;3.20;99.90
25554;DHT22;13446;50.926;5.332;2024-01-15T07:24:43;3.10;99.90
25554;DHT22;13446;50.926;5.332;2024-01-15T07:27:09;3.00;99.90
25554;DHT22;13446;50.926;5.332;2024-01-15T07:29:35;3.00;99.90
25554;DHT22;13446;50.926;5.332;2024-01-15T07:32:04;3.00;99.90
25554;DHT22;13446;50.926;5.332;2024-01-15T07:34:30;3.10;99.90
25554;DHT22;13446;50.926;5.332;2024-01-15T07:36:57;3.00;99.90
25554;DHT22;13446;50.926;5.332;2024-01-15T07:39:23;3.20;99.90
25554;DHT22;13446;50.926;5.332;2024-01-15T07:41:53;3.10;99.90
25554;DHT22;13446;50.926;5.332;2024-01-15T07:44:19;2.90;99.90
25554;DHT22;13446;50.926;5.332;2024-01-15T07:46:45;2.90;99.90
25554;DHT22;13446;50.926;5.332;2024-01-15T07:49:11;2.80;99.90
25554;DHT22;13446;50.926;5.332;2024-01-15T07:51:37;2.80;99.90
25554;DHT22;13446;50.926;5.332;2024-01-15T07:54:03;2.70;99.90
25554;DHT22;13446;50.926;5.332;2024-01-15T07:56:29;2.60;99.90
25554;DHT22;13446;50.926;5.332;2024-01-15T07:58:56;2.50;99.90
25554;DHT22;13446;50.926;5.332;2024-01-15T08:01:22;2.50;99.90
25554;DHT22;13446;50.926;5.332;2024-01-15T08:03:47;2.50;99.90
25554;DHT22;13446;50.926;5.332;2024-01-15T08:06:13;2.60;99.90
25554;DHT22;13446;50.926;5.332;2024-01-15T08:08:39;2.70;99.90
25554;DHT22;13446;50.926;5.332;2024-01-15T08:11:05;2.90;99.90
25554;DHT22;13446;50.926;5.332;2024-01-15T08:13:31;3.00;99.90
25554;DHT22;13446;50.926;5.332;2024-01-15T08:15:56;2.70;99.90
25554;DHT22;13446;50.926;5.332;2024-01-15T08:18:22;2.70;99.90
25554;DHT22;13446;50.926;5.332;2024-01-15T08:20:48;2.90;99.90
25554;DHT22;13446;50.926;5.332;2024-01-15T08:23:14;2.70;99.90
25554;DHT22;13446;50.926;5.332;2024-01-15T08:25:40;2.50;99.90
25554;DHT22;13446;50.926;5.332;2024-01-15T08:28:05;2.50;99.90
25554;DHT22;13446;50.926;5.332;2024-01-15T08:30:31;2.40;99.90
25554;DHT22;13446;50.926;5.332;2024-01-15T08:32:57;2.30;99.90
25554;DHT22;13446;50.926;5.332;2024-01-15T08:35:24;2.30;99.90
25554;DHT22;13446;50.926;5.332;2024-01-15T08:37:50;2.40;99.90
25554;DHT22;13446;50.926;5.332;2024-01-15T08:40:16;2.50;99.90
25554;DHT22;13446;50.926;5.332;2024-01-15T08:42:42;2.70;99.90
25554;DHT22;13446;50.926;5.332;2024-01-15T08:45:09;2.60;99.90
25554;DHT22;13446;50.926;5.332;2024-01-15T08:47:35;2.70;99.90
25554;DHT22;13446;50.926;5.332;2024-01-15T08:50:01;2.60;99.90
25554;DHT22;13446;50.926;5.332;2024-01-15T08:52:27;2.60;99.90
25554;DHT22;13446;50.926;5.332;2024-01-15T08:54:54;3.00;99.90
25554;DHT22;13446;50.926;5.332;2024-01-15T08:57:19;3.10;99.90
25554;DHT22;13446;50.926;5.332;2024-01-15T08:59:45;3.20;99.90
25554;DHT22;13446;50.926;5.332;2024-01-15T09:02:11;3.10;99.90
25554;DHT22;13446;50.926;5.332;2024-01-15T09:04:36;3.20;99.90
25554;DHT22;13446;50.926;5.332;2024-01-15T09:07:02;3.40;99.90
25554;DHT22;13446;50.926;5.332;2024-01-15T09:09:28;3.20;99.90
25554;DHT22;13446;50.926;5.332;2024-01-15T09:11:53;3.20;99.90
25554;DHT22;13446;50.926;5.332;2024-01-15T09:14:19;3.30;99.90
25554;DHT22;13446;50.926;5.332;2024-01-15T09:16:46;3.30;99.90
25554;DHT22;13446;50.926;5.332;2024-01-15T09:19:13;3.30;99.90
25554;DHT22;13446;50.926;5.332;2024-01-15T09:21:39;3.20;99.90
25554;DHT22;13446;50.926;5.332;2024-01-15T09:24:05;3.20;99.90
25554;DHT22;13446;50.926;5.332;2024-01-15T09:26:31;3.20;99.90
25554;DHT22;13446;50.926;5.332;2024-01-15T09:28:57;3.20;99.90
25554;DHT22;13446;50.926;5.332;2024-01-15T09:31:23;2.90;99.90
25554;DHT22;13446;50.926;5.332;2024-01-15T09:33:49;3.00;99.90
25554;DHT22;13446;50.926;5.332;2024-01-15T09:36:17;3.00;99.90
25554;DHT22;13446;50.926;5.332;2024-01-15T09:38:43;3.30;99.90
25554;DHT22;13446;50.926;5.332;2024-01-15T09:41:09;3.40;99.90
25554;DHT22;13446;50.926;5.332;2024-01-15T09:43:36;3.40;99.90
25554;DHT22;13446;50.926;5.332;2024-01-15T09:46:03;3.30;99.90
25554;DHT22;13446;50.926;5.332;2024-01-15T09:48:29;3.30;99.90
25554;DHT22;13446;50.926;5.332;2024-01-15T09:50:56;3.50;99.90
25554;DHT22;13446;50.926;5.332;2024-01-15T09:53:24;3.70;99.90
25554;DHT22;13446;50.926;5.332;2024-01-15T09:55:50;4.00;99.90
25554;DHT22;13446;50.926;5.332;2024-01-15T09:58:17;3.80;99.90
25554;DHT22;13446;50.926;5.332;2024-01-15T10:00:44;3.80;99.90
25554;DHT22;13446;50.926;5.332;2024-01-15T10:03:10;3.90;99.90
25554;DHT22;13446;50.926;5.332;2024-01-15T10:05:37;4.00;99.90
25554;DHT22;13446;50.926;5.332;2024-01-15T10:08:04;4.20;99.90
25554;DHT22;13446;50.926;5.332;2024-01-15T10:10:30;4.40;99.90
25554;DHT22;13446;50.926;5.332;2024-01-15T10:12:58;4.60;99.90
25554;DHT22;13446;50.926;5.332;2024-01-15T10:15:24;4.70;99.90
25554;DHT22;13446;50.926;5.332;2024-01-15T10:17:51;4.60;99.90
25554;DHT22;13446;50.926;5.332;2024-01-15T10:20:17;4.50;99.90
25554;DHT22;13446;50.926;5.332;2024-01-15T10:22:45;4.50;99.90
25554;DHT22;13446;50.926;5.332;2024-01-15T10:25:13;5.00;99.90
25554;DHT22;13446;50.926;5.332;2024-01-15T10:27:40;4.90;99.90
25554;DHT22;13446;50.926;5.332;2024-01-15T10:30:07;5.20;99.90
25554;DHT22;13446;50.926;5.332;2024-01-15T10:32:33;5.20;99.90
25554;DHT22;13446;50.926;5.332;2024-01-15T10:34:59;5.00;99.90
25554;DHT22;13446;50.926;5.332;2024-01-15T10:37:24;6.30;99.90
25554;DHT22;13446;50.926;5.332;2024-01-15T10:39:51;7.80;99.90
25554;DHT22;13446;50.926;5.332;2024-01-15T10:42:17;9.70;99.90
25554;DHT22;13446;50.926;5.332;2024-01-15T10:44:44;9.40;99.90
25554;DHT22;13446;50.926;5.332;2024-01-15T10:47:12;8.80;99.90
25554;DHT22;13446;50.926;5.332;2024-01-15T10:49:38;7.60;99.90
25554;DHT22;13446;50.926;5.332;2024-01-15T10:52:04;7.40;99.90
25554;DHT22;13446;50.926;5.332;2024-01-15T10:54:31;7.90;99.90
25554;DHT22;13446;50.926;5.332;2024-01-15T10:57:02;8.90;99.90
25554;DHT22;13446;50.926;5.332;2024-01-15T11:01:54;10.40;99.90
25554;DHT22;13446;50.926;5.332;2024-01-15T11:04:21;10.20;99.90
25554;DHT22;13446;50.926;5.332;2024-01-15T11:06:51;11.00;99.90
25554;DHT22;13446;50.926;5.332;2024-01-15T11:09:18;12.60;99.90
25554;DHT22;13446;50.926;5.332;2024-01-15T11:11:45;12.20;96.60
25554;DHT22;13446;50.926;5.332;2024-01-15T11:14:33;11.80;98.80
25554;DHT22;13446;50.926;5.332;2024-01-15T11:16:59;12.30;97.70
25554;DHT22;13446;50.926;5.332;2024-01-15T11:19:25;12.50;98.40
25554;DHT22;13446;50.926;5.332;2024-01-15T11:21:51;11.00;99.20
25554;DHT22;13446;50.926;5.332;2024-01-15T11:24:39;10.60;99.90
25554;DHT22;13446;50.926;5.332;2024-01-15T11:27:07;9.30;99.90
25554;DHT22;13446;50.926;5.332;2024-01-15T11:29:35;8.10;99.90
25554;DHT22;13446;50.926;5.332;2024-01-15T11:32:07;6.60;99.90
25554;DHT22;13446;50.926;5.332;2024-01-15T11:37:56;6.30;99.90
25554;DHT22;13446;50.926;5.332;2024-01-15T11:40:12;6.00;99.90
25554;DHT22;13446;50.926;5.332;2024-01-15T11:42:39;5.90;99.90
25554;DHT22;13446;50.926;5.332;2024-01-15T11:45:05;6.00;99.90
25554;DHT22;13446;50.926;5.332;2024-01-15T11:50:14;5.40;99.90
25554;DHT22;13446;50.926;5.332;2024-01-15T11:52:49;4.90;99.90
25554;DHT22;13446;50.926;5.332;2024-01-15T11:55:26;4.20;99.90
25554;DHT22;13446;50.926;5.332;2024-01-15T11:57:53;3.70;99.90
25554;DHT22;13446;50.926;5.332;2024-01-15T12:00:22;3.30;99.90
25554;DHT22;13446;50.926;5.332;2024-01-15T12:02:49;3.10;99.90
25554;DHT22;13446;50.926;5.332;2024-01-15T12:05:17;3.10;99.90
25554;DHT22;13446;50.926;5.332;2024-01-15T12:07:48;3.10;99.90
25554;DHT22;13446;50.926;5.332;2024-01-15T12:10:21;3.40;99.90
25554;DHT22;13446;50.926;5.332;2024-01-15T12:15:27;3.90;99.90
25554;DHT22;13446;50.926;5.332;2024-01-15T12:17:58;4.00;99.90
25554;DHT22;13446;50.926;5.332;2024-01-15T12:20:28;3.60;99.90
25554;DHT22;13446;50.926;5.332;2024-01-15T12:22:54;3.30;99.90
25554;DHT22;13446;50.926;5.332;2024-01-15T12:25:23;3.40;99.90
25554;DHT22;13446;50.926;5.332;2024-01-15T12:27:49;3.40;99.90
25554;DHT22;13446;50.926;5.332;2024-01-15T12:30:15;3.50;99.90
25554;DHT22;13446;50.926;5.332;2024-01-15T12:32:41;3.50;99.90
25554;DHT22;13446;50.926;5.332;2024-01-15T12:35:08;3.30;99.90
25554;DHT22;13446;50.926;5.332;2024-01-15T12:37:41;3.40;99.90
25554;DHT22;13446;50.926;5.332;2024-01-15T12:40:08;3.10;99.90
25554;DHT22;13446;50.926;5.332;2024-01-15T12:42:41;3.10;99.90
25554;DHT22;13446;50.926;5.332;2024-01-15T12:45:07;2.80;99.90
25554;DHT22;13446;50.926;5.332;2024-01-15T12:47:34;2.80;99.90
25554;DHT22;13446;50.926;5.332;2024-01-15T12:50:00;3.40;99.90
25554;DHT22;13446;50.926;5.332;2024-01-15T12:52:29;3.70;99.90
25554;DHT22;13446;50.926;5.332;2024-01-15T12:54:55;3.80;99.90
25554;DHT22;13446;50.926;5.332;2024-01-15T12:57:21;3.90;99.90
25554;DHT22;13446;50.926;5.332;2024-01-15T12:59:47;3.90;99.90
25554;DHT22;13446;50.926;5.332;2024-01-15T13:02:15;3.90;99.90
25554;DHT22;13446;50.926;5.332;2024-01-15T13:04:42;3.90;99.90
25554;DHT22;13446;50.926;5.332;2024-01-15T13:07:08;4.00;99.90
25554;DHT22;13446;50.926;5.332;2024-01-15T13:09:34;4.20;99.90
25554;DHT22;13446;50.926;5.332;2024-01-15T13:12:01;4.20;99.90
25554;DHT22;13446;50.926;5.332;2024-01-15T13:14:27;4.30;99.90
25554;DHT22;13446;50.926;5.332;2024-01-15T13:16:53;4.40;99.90
25554;DHT22;13446;50.926;5.332;2024-01-15T13:19:20;4.40;99.90
25554;DHT22;13446;50.926;5.332;2024-01-15T13:21:47;4.30;99.90
25554;DHT22;13446;50.926;5.332;2024-01-15T13:24:13;4.20;99.90
25554;DHT22;13446;50.926;5.332;2024-01-15T13:26:39;4.20;99.90
25554;DHT22;13446;50.926;5.332;2024-01-15T13:29:06;4.30;99.90
25554;DHT22;13446;50.926;5.332;2024-01-15T13:31:32;4.40;99.90
25554;DHT22;13446;50.926;5.332;2024-01-15T13:33:59;4.60;99.90
25554;DHT22;13446;50.926;5.332;2024-01-15T13:36:27;4.60;99.90
25554;DHT22;13446;50.926;5.332;2024-01-15T13:38:54;4.70;99.90
25554;DHT22;13446;50.926;5.332;2024-01-15T13:41:20;4.60;99.90
25554;DHT22;13446;50.926;5.332;2024-01-15T13:43:54;4.60;99.90
25554;DHT22;13446;50.926;5.332;2024-01-15T13:46:23;4.30;99.90
25554;DHT22;13446;50.926;5.332;2024-01-15T13:48:48;4.30;99.90
25554;DHT22;13446;50.926;5.332;2024-01-15T13:51:14;4.10;99.90
25554;DHT22;13446;50.926;5.332;2024-01-15T13:53:40;4.30;99.90
25554;DHT22;13446;50.926;5.332;2024-01-15T13:56:06;4.60;99.90
25554;DHT22;13446;50.926;5.332;2024-01-15T13:58:32;4.70;99.90
25554;DHT22;13446;50.926;5.332;2024-01-15T14:01:01;4.50;99.90
25554;DHT22;13446;50.926;5.332;2024-01-15T14:03:29;4.60;99.90
25554;DHT22;13446;50.926;5.332;2024-01-15T14:05:55;4.50;99.90
25554;DHT22;13446;50.926;5.332;2024-01-15T14:08:20;4.40;99.90
25554;DHT22;13446;50.926;5.332;2024-01-15T14:10:47;4.30;99.90
25554;DHT22;13446;50.926;5.332;2024-01-15T14:13:13;4.40;99.90
25554;DHT22;13446;50.926;5.332;2024-01-15T14:15:38;4.30;99.90
25554;DHT22;13446;50.926;5.332;2024-01-15T14:18:05;4.30;99.90
25554;DHT22;13446;50.926;5.332;2024-01-15T14:20:31;4.40;99.90
25554;DHT22;13446;50.926;5.332;2024-01-15T14:22:56;4.40;99.90
25554;DHT22;13446;50.926;5.332;2024-01-15T14:25:22;4.40;99.90
25554;DHT22;13446;50.926;5.332;2024-01-15T14:27:49;3.80;99.90
25554;DHT22;13446;50.926;5.332;2024-01-15T14:30:15;3.80;99.90
25554;DHT22;13446;50.926;5.332;2024-01-15T14:32:42;3.90;99.90
25554;DHT22;13446;50.926;5.332;2024-01-15T14:35:08;4.10;99.90
25554;DHT22;13446;50.926;5.332;2024-01-15T14:37:37;4.20;99.90
25554;DHT22;13446;50.926;5.332;2024-01-15T14:40:04;4.10;99.90
25554;DHT22;13446;50.926;5.332;2024-01-15T14:42:30;4.00;99.90
25554;DHT22;13446;50.926;5.332;2024-01-15T14:44:56;4.00;99.90
25554;DHT22;13446;50.926;5.332;2024-01-15T14:47:22;3.80;99.90
25554;DHT22;13446;50.926;5.332;2024-01-15T14:49:49;3.70;99.90
25554;DHT22;13446;50.926;5.332;2024-01-15T14:52:15;3.70;99.90
25554;DHT22;13446;50.926;5.332;2024-01-15T14:54:44;3.60;99.90
25554;DHT22;13446;50.926;5.332;2024-01-15T14:57:09;3.60;99.90
25554;DHT22;13446;50.926;5.332;2024-01-15T14:59:35;3.60;99.90
25554;DHT22;13446;50.926;5.332;2024-01-15T15:02:02;3.50;99.90
25554;DHT22;13446;50.926;5.332;2024-01-15T15:04:28;3.70;99.90
25554;DHT22;13446;50.926;5.332;2024-01-15T15:06:55;3.50;99.90
25554;DHT22;13446;50.926;5.332;2024-01-15T15:09:20;3.50;99.90
25554;DHT22;13446;50.926;5.332;2024-01-15T15:11:46;3.40;99.90
25554;DHT22;13446;50.926;5.332;2024-01-15T15:14:12;3.60;99.90
25554;DHT22;13446;50.926;5.332;2024-01-15T15:16:37;3.60;99.90
25554;DHT22;13446;50.926;5.332;2024-01-15T15:19:03;3.60;99.90
25554;DHT22;13446;50.926;5.332;2024-01-15T15:21:29;3.80;99.90
25554;DHT22;13446;50.926;5.332;2024-01-15T15:23:55;3.90;99.90
25554;DHT22;13446;50.926;5.332;2024-01-15T15:26:20;4.00;99.90
25554;DHT22;13446;50.926;5.332;2024-01-15T15:28:46;4.00;99.90
25554;DHT22;13446;50.926;5.332;2024-01-15T15:31:12;3.70;99.90
25554;DHT22;13446;50.926;5.332;2024-01-15T15:33:37;3.50;99.90
25554;DHT22;13446;50.926;5.332;2024-01-15T15:36:04;3.50;99.90
25554;DHT22;13446;50.926;5.332;2024-01-15T15:38:34;3.40;99.90
25554;DHT22;13446;50.926;5.332;2024-01-15T15:41:00;3.20;99.90
25554;DHT22;13446;50.926;5.332;2024-01-15T15:43:26;3.00;99.90
25554;DHT22;13446;50.926;5.332;2024-01-15T15:45:52;3.20;99.90
25554;DHT22;13446;50.926;5.332;2024-01-15T15:48:18;3.20;99.90
25554;DHT22;13446;50.926;5.332;2024-01-15T15:50:43;3.20;99.90